createdAt,value
2018-10-09T00:00:46.750Z,7.24
2018-10-09T00:01:46.636Z,7.26
2018-10-09T00:02:46.631Z,7.32
2018-10-09T00:03:46.619Z,7.27
2018-10-09T00:04:46.629Z,7.34
2018-10-09T00:05:46.601Z,7.21
2018-10-09T00:06:46.588Z,7.23
2018-10-09T00:07:46.577Z,7.16
2018-10-09T00:08:46.563Z,7.27
2018-10-09T00:09:46.585Z,7.16
2018-10-09T00:10:46.547Z,7.15
2018-10-09T00:11:46.533Z,7.23
2018-10-09T00:12:46.524Z,7.15
2018-10-09T00:13:46.512Z,7.16
2018-10-09T00:14:46.494Z,7.23
2018-10-09T00:15:46.513Z,7.18
2018-10-09T00:16:46.472Z,7.08
2018-10-09T00:17:46.465Z,7.07
2018-10-09T00:18:46.459Z,7.08
2018-10-09T00:19:46.441Z,7.11
2018-10-09T00:20:46.453Z,7.18
2018-10-09T00:21:46.420Z,7.08
2018-10-09T00:22:46.419Z,7.07
2018-10-09T00:23:46.400Z,7.08
2018-10-09T00:24:46.388Z,7.05
2018-10-09T00:25:46.407Z,7.18
2018-10-09T00:26:46.364Z,7.16
2018-10-09T00:27:46.353Z,7.26
2018-10-09T00:28:46.344Z,7.37
2018-10-09T00:29:46.330Z,7.30
2018-10-09T00:30:46.362Z,7.44
2018-10-09T00:31:46.324Z,7.51
2018-10-09T00:32:46.304Z,7.51
2018-10-09T00:33:46.295Z,7.58
2018-10-09T00:34:46.283Z,7.62
2018-10-09T00:35:46.266Z,7.74
2018-10-09T00:36:46.285Z,7.71
2018-10-09T00:37:46.245Z,7.84
2018-10-09T00:38:46.245Z,7.79
2018-10-09T00:39:46.220Z,7.89
2018-10-09T00:40:46.211Z,7.96
2018-10-09T00:41:46.223Z,7.99
2018-10-09T00:42:46.191Z,7.95
2018-10-09T00:43:46.183Z,7.96
2018-10-09T00:44:46.173Z,8.00
2018-10-09T00:45:46.166Z,7.91
2018-10-09T00:46:46.181Z,7.96
2018-10-09T00:47:46.141Z,7.94
2018-10-09T00:48:46.121Z,7.82
2018-10-09T00:49:46.113Z,7.89
2018-10-09T00:50:46.111Z,7.82
2018-10-09T00:51:46.093Z,7.84
2018-10-09T00:52:46.104Z,7.82
2018-10-09T00:53:46.069Z,7.81
2018-10-09T00:54:46.064Z,7.86
2018-10-09T00:55:46.046Z,7.73
2018-10-09T00:56:46.039Z,7.67
2018-10-09T00:57:46.060Z,7.71
2018-10-09T00:58:46.022Z,7.77
2018-10-09T00:59:46.003Z,7.76
2018-10-09T01:00:45.994Z,7.79
2018-10-09T01:01:45.981Z,7.81
2018-10-09T01:02:46.016Z,7.86
2018-10-09T01:03:45.961Z,7.89
2018-10-09T01:04:45.949Z,7.88
2018-10-09T01:05:45.938Z,8.02
2018-10-09T01:06:45.933Z,8.00
2018-10-09T01:07:45.917Z,8.03
2018-10-09T01:08:45.935Z,8.04
2018-10-09T01:09:45.901Z,8.04
2018-10-09T01:10:45.882Z,8.06
2018-10-09T01:11:45.879Z,8.00
2018-10-09T01:12:45.862Z,8.07
2018-10-09T01:13:45.890Z,8.14
2018-10-09T01:14:45.873Z,8.12
2018-10-09T01:15:45.837Z,8.12
2018-10-09T01:16:45.820Z,8.02
2018-10-09T01:17:45.813Z,8.02
2018-10-09T01:18:45.803Z,8.07
2018-10-09T01:19:45.809Z,8.03
2018-10-09T01:20:45.774Z,8.03
2018-10-09T01:21:45.786Z,8.03
2018-10-09T01:22:45.757Z,8.09
2018-10-09T01:23:45.745Z,8.10
2018-10-09T01:24:45.792Z,8.22
2018-10-09T01:25:45.724Z,8.10
2018-10-09T01:26:45.713Z,8.17
2018-10-09T01:27:45.700Z,8.04
2018-10-09T01:28:45.685Z,8.00
2018-10-09T01:29:45.727Z,7.95
2018-10-09T01:30:45.677Z,8.04
2018-10-09T01:31:45.653Z,8.06
2018-10-09T01:32:45.653Z,8.04
2018-10-09T01:33:45.631Z,7.92
2018-10-09T01:34:45.691Z,7.96
2018-10-09T01:35:45.609Z,7.95
2018-10-09T01:36:45.601Z,7.89
2018-10-09T01:37:45.611Z,7.84
2018-10-09T01:38:45.581Z,7.79
2018-10-09T01:39:45.587Z,7.79
2018-10-09T01:40:45.554Z,7.76
2018-10-09T01:41:45.544Z,7.81
2018-10-09T01:42:45.543Z,7.82
2018-10-09T01:43:45.524Z,7.71
2018-10-09T01:44:45.547Z,7.73
2018-10-09T01:45:45.507Z,7.67
2018-10-09T01:46:45.497Z,7.67
2018-10-09T01:47:45.478Z,7.57
2018-10-09T01:48:45.472Z,7.55
2018-10-09T01:49:45.456Z,7.55
2018-10-09T01:50:45.477Z,7.50
2018-10-09T01:51:45.435Z,7.48
2018-10-09T01:52:45.428Z,7.55
2018-10-09T01:53:45.416Z,7.54
2018-10-09T01:54:45.411Z,7.57
2018-10-09T01:55:45.424Z,7.52
2018-10-09T01:56:45.383Z,7.47
2018-10-09T01:57:45.381Z,7.48
2018-10-09T01:58:45.358Z,7.48
2018-10-09T01:59:45.346Z,7.48
2018-10-09T02:00:45.368Z,7.47
2018-10-09T02:01:45.328Z,7.37
2018-10-09T02:02:45.324Z,7.37
2018-10-09T02:03:45.310Z,7.26
2018-10-09T02:04:45.299Z,7.27
2018-10-09T02:05:45.284Z,7.30
2018-10-09T02:06:45.303Z,7.34
2018-10-09T02:07:45.269Z,7.24
2018-10-09T02:08:45.257Z,7.33
2018-10-09T02:09:45.241Z,7.29
2018-10-09T02:10:45.234Z,7.24
2018-10-09T02:11:45.243Z,7.29
2018-10-09T02:12:45.211Z,7.23
2018-10-09T02:13:45.197Z,7.18
2018-10-09T02:14:45.182Z,7.16
2018-10-09T02:15:45.176Z,7.16
2018-10-09T02:16:45.214Z,7.23
2018-10-09T02:17:45.157Z,7.11
2018-10-09T02:18:45.141Z,7.19
2018-10-09T02:19:45.131Z,7.12
2018-10-09T02:20:45.124Z,7.09
2018-10-09T02:21:45.110Z,7.05
2018-10-09T02:22:45.124Z,7.08
2018-10-09T02:23:45.089Z,7.12
2018-10-09T02:24:45.083Z,7.16
2018-10-09T02:25:45.073Z,7.41
2018-10-09T02:26:45.071Z,7.30
2018-10-09T02:27:45.069Z,7.39
2018-10-09T02:28:45.041Z,7.47
2018-10-09T02:29:45.024Z,7.50
2018-10-09T02:30:45.012Z,7.55
2018-10-09T02:31:45.007Z,7.51
2018-10-09T02:32:44.987Z,7.63
2018-10-09T02:33:45.178Z,7.48
2018-10-09T02:34:44.973Z,7.63
2018-10-09T02:35:44.971Z,7.52
2018-10-09T02:36:44.946Z,7.62
2018-10-09T02:37:44.933Z,7.63
2018-10-09T02:38:44.959Z,7.60
2018-10-09T02:39:44.912Z,7.54
2018-10-09T02:40:44.912Z,7.50
2018-10-09T02:41:44.891Z,7.48
2018-10-09T02:42:44.878Z,7.48
2018-10-09T02:43:44.867Z,7.42
2018-10-09T02:44:44.883Z,7.39
2018-10-09T02:45:44.858Z,7.41
2018-10-09T02:46:44.854Z,7.36
2018-10-09T02:47:44.829Z,7.36
2018-10-09T02:48:44.811Z,7.36
2018-10-09T02:49:44.833Z,7.41
2018-10-09T02:50:44.798Z,7.39
2018-10-09T02:51:44.779Z,7.51
2018-10-09T02:52:44.773Z,7.42
2018-10-09T02:53:44.760Z,7.42
2018-10-09T02:54:44.775Z,7.39
2018-10-09T02:55:44.743Z,7.37
2018-10-09T02:56:44.724Z,7.33
2018-10-09T02:57:44.716Z,7.37
2018-10-09T02:58:44.709Z,7.45
2018-10-09T02:59:44.728Z,7.50
2018-10-09T03:00:44.681Z,7.55
2018-10-09T03:01:44.671Z,7.55
2018-10-09T03:02:44.684Z,7.51
2018-10-09T03:03:44.653Z,7.51
2018-10-09T03:04:44.650Z,7.51
2018-10-09T03:05:44.666Z,7.48
2018-10-09T03:06:44.628Z,7.50
2018-10-09T03:07:44.609Z,7.48
2018-10-09T03:08:44.613Z,7.45
2018-10-09T03:09:44.584Z,7.52
2018-10-09T03:10:44.602Z,7.47
2018-10-09T03:11:44.567Z,7.57
2018-10-09T03:12:44.564Z,7.51
2018-10-09T03:13:44.540Z,7.48
2018-10-09T03:14:44.539Z,7.51
2018-10-09T03:15:44.540Z,7.47
2018-10-09T03:16:44.513Z,7.42
2018-10-09T03:17:44.494Z,7.52
2018-10-09T03:18:44.485Z,7.50
2018-10-09T03:19:44.478Z,7.45
2018-10-09T03:20:44.546Z,7.47
2018-10-09T03:21:44.468Z,7.48
2018-10-09T03:22:44.441Z,7.47
2018-10-09T03:23:44.430Z,7.45
2018-10-09T03:24:44.420Z,7.45
2018-10-09T03:25:44.448Z,7.52
2018-10-09T03:26:44.393Z,7.48
2018-10-09T03:27:44.399Z,7.50
2018-10-09T03:28:44.397Z,7.45
2018-10-09T03:29:44.361Z,7.34
2018-10-09T03:30:44.386Z,7.48
2018-10-09T03:31:44.362Z,7.54
2018-10-09T03:32:44.356Z,7.58
2018-10-09T03:33:44.323Z,7.57
2018-10-09T03:34:44.312Z,7.63
2018-10-09T03:35:44.323Z,7.66
2018-10-09T03:36:44.314Z,7.62
2018-10-09T03:37:44.283Z,7.50
2018-10-09T03:38:44.270Z,7.52
2018-10-09T03:39:44.255Z,7.52
2018-10-09T03:40:44.273Z,7.62
2018-10-09T03:41:44.229Z,7.55
2018-10-09T03:42:44.226Z,7.63
2018-10-09T03:43:44.220Z,7.62
2018-10-09T03:44:44.200Z,7.52
2018-10-09T03:45:44.215Z,7.57
2018-10-09T03:46:44.177Z,7.52
2018-10-09T03:47:44.169Z,7.55
2018-10-09T03:48:44.166Z,7.58
2018-10-09T03:49:44.158Z,7.57
2018-10-09T03:50:44.164Z,7.73
2018-10-09T03:51:44.128Z,7.74
2018-10-09T03:52:44.111Z,7.76
2018-10-09T03:53:44.114Z,7.73
2018-10-09T03:54:44.089Z,7.82
2018-10-09T03:55:44.107Z,7.77
2018-10-09T03:56:44.065Z,7.73
2018-10-09T03:57:44.055Z,7.77
2018-10-09T03:58:44.079Z,7.84
2018-10-09T03:59:44.055Z,7.74
2018-10-09T04:00:44.051Z,7.81
2018-10-09T04:01:44.045Z,7.82
2018-10-09T04:02:43.999Z,7.85
2018-10-09T04:03:43.991Z,7.81
2018-10-09T04:04:43.989Z,7.77
2018-10-09T04:05:44.010Z,7.76
2018-10-09T04:06:43.962Z,7.79
2018-10-09T04:07:43.959Z,7.82
2018-10-09T04:08:43.937Z,7.79
2018-10-09T04:09:43.923Z,7.74
2018-10-09T04:10:43.941Z,7.84
2018-10-09T04:11:43.903Z,7.82
2018-10-09T04:12:43.923Z,7.74
2018-10-09T04:13:43.879Z,7.74
2018-10-09T04:14:43.890Z,7.74
2018-10-09T04:15:43.892Z,7.63
2018-10-09T04:16:43.850Z,7.73
2018-10-09T04:17:43.842Z,7.73
2018-10-09T04:18:43.835Z,7.70
2018-10-09T04:19:43.818Z,7.70
2018-10-09T04:20:43.838Z,7.73
2018-10-09T04:21:43.795Z,7.82
2018-10-09T04:22:43.823Z,7.84
2018-10-09T04:23:43.770Z,7.77
2018-10-09T04:24:43.765Z,7.84
2018-10-09T04:25:43.786Z,7.82
2018-10-09T04:26:43.741Z,7.81
2018-10-09T04:27:43.732Z,7.76
2018-10-09T04:28:43.721Z,7.69
2018-10-09T04:29:43.709Z,7.79
2018-10-09T04:30:43.720Z,7.82
2018-10-09T04:31:43.689Z,7.69
2018-10-09T04:32:43.692Z,7.82
2018-10-09T04:33:43.681Z,7.82
2018-10-09T04:34:43.653Z,7.77
2018-10-09T04:35:43.769Z,7.81
2018-10-09T04:36:43.629Z,7.82
2018-10-09T04:37:43.626Z,7.85
2018-10-09T04:38:43.608Z,7.82
2018-10-09T04:39:43.612Z,7.82
2018-10-09T04:40:43.589Z,7.82
2018-10-09T04:41:43.601Z,7.88
2018-10-09T04:42:43.566Z,7.95
2018-10-09T04:43:43.565Z,7.91
2018-10-09T04:44:43.546Z,8.00
2018-10-09T04:45:43.538Z,8.00
2018-10-09T04:46:43.550Z,8.03
2018-10-09T04:47:43.522Z,8.04
2018-10-09T04:48:43.504Z,7.96
2018-10-09T04:49:43.492Z,8.02
2018-10-09T04:50:43.479Z,8.04
2018-10-09T04:51:43.490Z,8.06
2018-10-09T04:52:43.471Z,8.00
2018-10-09T04:53:43.472Z,8.00
2018-10-09T04:54:43.442Z,8.02
2018-10-09T04:55:43.439Z,7.99
2018-10-09T04:56:43.440Z,8.02
2018-10-09T04:57:43.407Z,7.99
2018-10-09T04:58:43.394Z,8.00
2018-10-09T04:59:43.389Z,8.07
2018-10-09T05:00:43.372Z,8.04
2018-10-09T05:01:43.439Z,7.95
2018-10-09T05:02:43.346Z,8.04
2018-10-09T05:03:43.340Z,8.03
2018-10-09T05:04:43.346Z,8.00
2018-10-09T05:05:43.323Z,8.04
2018-10-09T05:06:43.334Z,8.02
2018-10-09T05:07:43.301Z,8.02
2018-10-09T05:08:43.305Z,8.04
2018-10-09T05:09:43.270Z,8.07
2018-10-09T05:10:43.265Z,8.06
2018-10-09T05:11:43.348Z,7.94
2018-10-09T05:12:43.236Z,8.03
2018-10-09T05:13:43.237Z,8.03
2018-10-09T05:14:43.252Z,8.04
2018-10-09T05:15:43.247Z,8.06
2018-10-09T05:16:43.219Z,8.00
2018-10-09T05:17:43.204Z,7.96
2018-10-09T05:18:43.198Z,7.95
2018-10-09T05:19:43.192Z,8.07
2018-10-09T05:20:43.156Z,8.03
2018-10-09T05:21:43.175Z,8.03
2018-10-09T05:22:43.146Z,7.99
2018-10-09T05:23:43.127Z,8.03
2018-10-09T05:24:43.124Z,8.02
2018-10-09T05:25:43.096Z,8.02
2018-10-09T05:26:43.116Z,8.00
2018-10-09T05:27:43.122Z,8.06
2018-10-09T05:28:43.064Z,7.99
2018-10-09T05:29:43.066Z,8.00
2018-10-09T05:30:43.063Z,8.03
2018-10-09T05:31:43.155Z,7.99
2018-10-09T05:32:43.073Z,8.03
2018-10-09T05:33:43.024Z,8.06
2018-10-09T05:34:43.001Z,8.13
2018-10-09T05:35:42.992Z,8.07
2018-10-09T05:36:43.008Z,8.10
2018-10-09T05:37:43.041Z,8.06
2018-10-09T05:38:42.964Z,8.09
2018-10-09T05:39:42.973Z,8.10
2018-10-09T05:40:42.941Z,8.10
2018-10-09T05:41:42.948Z,8.13
2018-10-09T05:42:42.920Z,8.18
2018-10-09T05:43:42.910Z,8.12
2018-10-09T05:44:42.966Z,8.20
2018-10-09T05:45:42.936Z,8.13
2018-10-09T05:46:42.902Z,8.10
2018-10-09T05:47:42.880Z,8.13
2018-10-09T05:48:42.850Z,8.04
2018-10-09T05:49:42.841Z,8.04
2018-10-09T05:50:42.829Z,8.09
2018-10-09T05:51:42.858Z,8.03
2018-10-09T05:52:42.888Z,8.09
2018-10-09T05:53:42.796Z,8.03
2018-10-09T05:54:42.788Z,8.09
2018-10-09T05:55:42.799Z,7.99
2018-10-09T05:56:42.788Z,8.09
2018-10-09T05:57:42.758Z,8.09
2018-10-09T05:58:42.743Z,8.13
2018-10-09T05:59:42.731Z,8.09
2018-10-09T06:00:42.730Z,8.09
2018-10-09T06:01:42.763Z,8.06
2018-10-09T06:02:42.705Z,8.07
2018-10-09T06:03:42.691Z,8.14
2018-10-09T06:04:42.679Z,8.10
2018-10-09T06:05:42.707Z,8.21
2018-10-09T06:06:42.689Z,8.10
2018-10-09T06:07:42.646Z,8.18
2018-10-09T06:08:42.635Z,8.21
2018-10-09T06:09:42.628Z,8.14
2018-10-09T06:10:42.616Z,8.17
2018-10-09T06:11:42.656Z,8.17
2018-10-09T06:12:42.593Z,8.27
2018-10-09T06:13:42.583Z,8.27
2018-10-09T06:14:42.570Z,8.25
2018-10-09T06:15:42.800Z,8.25
2018-10-09T06:16:42.587Z,8.20
2018-10-09T06:17:42.542Z,8.22
2018-10-09T06:18:42.541Z,8.32
2018-10-09T06:19:42.534Z,8.27
2018-10-09T06:20:42.502Z,8.31
2018-10-09T06:21:42.530Z,8.31
2018-10-09T06:22:42.486Z,8.34
2018-10-09T06:23:42.484Z,8.36
2018-10-09T06:24:42.463Z,8.34
2018-10-09T06:25:42.453Z,8.32
2018-10-09T06:26:42.471Z,8.34
2018-10-09T06:27:42.432Z,8.40
2018-10-09T06:28:42.417Z,8.43
2018-10-09T06:29:42.405Z,8.40
2018-10-09T06:30:42.398Z,8.47
2018-10-09T06:31:42.415Z,8.43
2018-10-09T06:32:42.380Z,8.49
2018-10-09T06:33:42.366Z,8.42
2018-10-09T06:34:42.361Z,8.43
2018-10-09T06:35:42.343Z,8.47
2018-10-09T06:36:42.435Z,8.52
2018-10-09T06:37:42.334Z,8.57
2018-10-09T06:38:42.395Z,8.57
2018-10-09T06:39:42.305Z,8.63
2018-10-09T06:40:42.344Z,8.73
2018-10-09T06:41:42.317Z,8.68
2018-10-09T06:42:42.302Z,8.75
2018-10-09T06:43:42.257Z,8.68
2018-10-09T06:44:42.273Z,8.65
2018-10-09T06:45:42.235Z,8.65
2018-10-09T06:46:42.254Z,8.70
2018-10-09T06:47:42.311Z,8.76
2018-10-09T06:48:42.214Z,8.71
2018-10-09T06:49:42.193Z,8.79
2018-10-09T06:50:42.203Z,8.88
2018-10-09T06:51:42.235Z,8.85
2018-10-09T06:52:42.162Z,8.76
2018-10-09T06:53:42.208Z,8.93
2018-10-09T06:54:42.378Z,8.86
2018-10-09T06:55:42.135Z,8.91
2018-10-09T06:56:42.141Z,8.97
2018-10-09T06:57:42.113Z,8.96
2018-10-09T06:58:42.100Z,9.00
2018-10-09T06:59:42.104Z,9.00
2018-10-09T07:00:42.080Z,8.98
2018-10-09T07:01:42.105Z,8.98
2018-10-09T07:02:42.056Z,9.01
2018-10-09T07:03:42.045Z,9.10
2018-10-09T07:04:42.057Z,9.06
2018-10-09T07:05:42.027Z,9.15
2018-10-09T07:06:42.046Z,9.19
2018-10-09T07:07:42.006Z,9.13
2018-10-09T07:08:41.999Z,9.22
2018-10-09T07:09:41.991Z,9.24
2018-10-09T07:10:41.977Z,9.26
2018-10-09T07:11:42.068Z,9.26
2018-10-09T07:12:41.990Z,9.31
2018-10-09T07:13:41.940Z,9.34
2018-10-09T07:14:41.929Z,9.34
2018-10-09T07:15:41.916Z,9.44
2018-10-09T07:16:41.912Z,9.48
2018-10-09T07:17:41.951Z,9.49
2018-10-09T07:18:41.906Z,9.45
2018-10-09T07:19:41.924Z,9.60
2018-10-09T07:20:41.874Z,9.60
2018-10-09T07:21:41.851Z,9.55
2018-10-09T07:22:41.868Z,9.63
2018-10-09T07:23:41.877Z,9.73
2018-10-09T07:24:41.825Z,9.70
2018-10-09T07:25:41.822Z,9.80
2018-10-09T07:26:41.800Z,9.78
2018-10-09T07:27:41.858Z,9.89
2018-10-09T07:28:41.776Z,9.75
2018-10-09T07:29:41.774Z,9.86
2018-10-09T07:30:41.757Z,9.85
2018-10-09T07:31:41.752Z,9.85
2018-10-09T07:32:41.767Z,9.85
2018-10-09T07:33:41.753Z,9.98
2018-10-09T07:34:41.719Z,9.99
2018-10-09T07:35:41.723Z,10.02
2018-10-09T07:36:41.694Z,10.02
2018-10-09T07:37:41.758Z,10.11
2018-10-09T07:38:41.681Z,10.09
2018-10-09T07:39:41.669Z,10.11
2018-10-09T07:40:41.652Z,10.10
2018-10-09T07:41:41.638Z,10.17
2018-10-09T07:42:41.666Z,10.22
2018-10-09T07:43:41.615Z,10.29
2018-10-09T07:44:41.611Z,10.22
2018-10-09T07:45:41.610Z,10.28
2018-10-09T07:46:41.603Z,10.34
2018-10-09T07:47:41.618Z,10.22
2018-10-09T07:48:41.573Z,10.36
2018-10-09T07:49:41.553Z,10.34
2018-10-09T07:50:41.540Z,10.39
2018-10-09T07:51:41.541Z,10.39
2018-10-09T07:52:41.586Z,10.46
2018-10-09T07:53:41.535Z,10.46
2018-10-09T07:54:41.502Z,10.44
2018-10-09T07:55:41.557Z,10.57
2018-10-09T07:56:41.474Z,10.44
2018-10-09T07:57:41.465Z,10.51
2018-10-09T07:58:41.650Z,10.62
2018-10-09T07:59:41.443Z,10.58
2018-10-09T08:00:41.441Z,10.70
2018-10-09T08:01:41.421Z,10.73
2018-10-09T08:02:41.429Z,10.76
2018-10-09T08:03:41.404Z,10.81
2018-10-09T08:04:41.457Z,10.91
2018-10-09T08:05:41.381Z,11.01
2018-10-09T08:06:41.382Z,10.98
2018-10-09T08:07:41.362Z,11.02
2018-10-09T08:08:41.393Z,11.03
2018-10-09T08:09:41.360Z,11.08
2018-10-09T08:10:41.397Z,11.19
2018-10-09T08:11:41.329Z,11.16
2018-10-09T08:12:41.305Z,11.20
2018-10-09T08:13:41.292Z,11.24
2018-10-09T08:14:41.318Z,11.20
2018-10-09T08:15:41.272Z,11.30
2018-10-09T08:16:41.265Z,11.33
2018-10-09T08:17:41.257Z,11.35
2018-10-09T08:18:41.240Z,11.31
2018-10-09T08:19:41.272Z,11.31
2018-10-09T08:20:41.219Z,11.36
2018-10-09T08:21:41.207Z,11.45
2018-10-09T08:22:41.346Z,11.44
2018-10-09T08:23:41.188Z,11.45
2018-10-09T08:24:41.199Z,11.48
2018-10-09T08:25:41.165Z,11.49
2018-10-09T08:26:41.155Z,11.67
2018-10-09T08:27:41.150Z,11.60
2018-10-09T08:28:41.145Z,11.69
2018-10-09T08:29:41.146Z,11.74
2018-10-09T08:30:41.154Z,11.74
2018-10-09T08:31:41.101Z,11.78
2018-10-09T08:32:41.092Z,11.77
2018-10-09T08:33:41.090Z,11.79
2018-10-09T08:34:41.183Z,11.94
2018-10-09T08:35:41.060Z,12.04
2018-10-09T08:36:41.050Z,11.88
2018-10-09T08:37:41.051Z,12.04
2018-10-09T08:38:41.042Z,12.01
2018-10-09T08:39:41.061Z,12.04
2018-10-09T08:40:41.020Z,12.16
2018-10-09T08:41:41.002Z,12.23
2018-10-09T08:42:41.002Z,12.26
2018-10-09T08:43:41.008Z,12.26
2018-10-09T08:44:40.987Z,12.43
2018-10-09T08:45:40.959Z,12.37
2018-10-09T08:46:40.953Z,12.54
2018-10-09T08:47:40.933Z,12.63
2018-10-09T08:48:40.922Z,12.70
2018-10-09T08:49:40.932Z,12.80
2018-10-09T08:50:40.956Z,12.88
2018-10-09T08:51:40.898Z,12.84
2018-10-09T08:52:40.882Z,12.94
2018-10-09T08:53:40.871Z,13.06
2018-10-09T08:54:40.889Z,13.19
2018-10-09T08:55:40.859Z,13.28
2018-10-09T08:56:40.834Z,13.39
2018-10-09T08:57:40.864Z,13.59
2018-10-09T08:58:40.812Z,13.53
2018-10-09T08:59:40.831Z,13.68
2018-10-09T09:00:40.805Z,13.76
2018-10-09T09:01:40.780Z,13.84
2018-10-09T09:02:40.773Z,13.86
2018-10-09T09:03:40.862Z,13.98
2018-10-09T09:04:40.770Z,13.96
2018-10-09T09:05:40.747Z,14.11
2018-10-09T09:06:40.770Z,14.05
2018-10-09T09:07:40.717Z,14.13
2018-10-09T09:08:40.705Z,14.20
2018-10-09T09:09:40.738Z,14.20
2018-10-09T09:10:40.689Z,14.35
2018-10-09T09:11:40.676Z,14.38
2018-10-09T09:12:40.695Z,14.34
2018-10-09T09:13:40.656Z,14.41
2018-10-09T09:14:40.651Z,14.41
2018-10-09T09:15:40.653Z,14.49
2018-10-09T09:16:40.661Z,14.41
2018-10-09T09:17:40.608Z,14.38
2018-10-09T09:18:40.606Z,14.52
2018-10-09T09:19:40.617Z,14.44
2018-10-09T09:20:40.640Z,14.38
2018-10-09T09:21:40.591Z,14.38
2018-10-09T09:22:40.583Z,14.29
2018-10-09T09:23:40.544Z,14.30
2018-10-09T09:24:40.578Z,14.23
2018-10-09T09:25:40.535Z,14.16
2018-10-09T09:26:40.632Z,14.20
2018-10-09T09:27:40.560Z,14.21
2018-10-09T09:28:40.500Z,14.11
2018-10-09T09:29:40.570Z,14.13
2018-10-09T09:30:40.485Z,14.08
2018-10-09T09:31:40.459Z,14.02
2018-10-09T09:32:40.459Z,13.98
2018-10-09T09:33:40.444Z,14.12
2018-10-09T09:34:40.464Z,14.06
2018-10-09T09:35:40.421Z,14.05
2018-10-09T09:36:40.421Z,13.98
2018-10-09T09:37:40.395Z,14.11
2018-10-09T09:38:40.394Z,14.04
2018-10-09T09:39:40.377Z,14.09
2018-10-09T09:40:40.396Z,14.09
2018-10-09T09:41:40.363Z,14.21
2018-10-09T09:42:40.340Z,14.21
2018-10-09T09:43:40.339Z,14.23
2018-10-09T09:44:40.322Z,14.30
2018-10-09T09:45:40.389Z,14.46
2018-10-09T09:46:40.329Z,14.48
2018-10-09T09:47:40.287Z,14.53
2018-10-09T09:48:40.280Z,14.54
2018-10-09T09:49:40.277Z,14.69
2018-10-09T09:50:40.254Z,14.64
2018-10-09T09:51:40.290Z,14.71
2018-10-09T09:52:40.238Z,14.79
2018-10-09T09:53:40.281Z,14.86
2018-10-09T09:54:40.214Z,14.90
2018-10-09T09:55:40.213Z,14.98
2018-10-09T09:56:40.222Z,14.98
2018-10-09T09:57:40.198Z,15.01
2018-10-09T09:58:40.408Z,15.12
2018-10-09T09:59:40.191Z,15.18
2018-10-09T10:00:40.170Z,15.23
2018-10-09T10:01:40.143Z,15.28
2018-10-09T10:02:40.156Z,15.41
2018-10-09T10:03:40.185Z,15.51
2018-10-09T10:04:40.115Z,15.53
2018-10-09T10:05:40.104Z,15.53
2018-10-09T10:06:40.082Z,15.56
2018-10-09T10:07:40.097Z,15.70
2018-10-09T10:08:40.061Z,15.74
2018-10-09T10:09:40.060Z,15.78
2018-10-09T10:10:40.041Z,15.78
2018-10-09T10:11:40.048Z,15.92
2018-10-09T10:12:40.062Z,15.96
2018-10-09T10:13:40.008Z,16.13
2018-10-09T10:14:39.997Z,16.13
2018-10-09T10:15:40.048Z,16.14
2018-10-09T10:16:39.985Z,16.27
2018-10-09T10:17:39.991Z,16.32
2018-10-09T10:18:39.955Z,16.30
2018-10-09T10:19:39.943Z,16.32
2018-10-09T10:20:39.934Z,16.36
2018-10-09T10:21:39.945Z,16.40
2018-10-09T10:22:40.061Z,16.42
2018-10-09T10:23:39.910Z,16.50
2018-10-09T10:24:39.888Z,16.60
2018-10-09T10:25:39.880Z,16.63
2018-10-09T10:26:39.886Z,16.80
2018-10-09T10:27:39.858Z,16.73
2018-10-09T10:28:39.877Z,16.82
2018-10-09T10:29:39.841Z,16.90
2018-10-09T10:30:39.823Z,16.98
2018-10-09T10:31:39.830Z,17.02
2018-10-09T10:32:39.804Z,17.06
2018-10-09T10:33:39.830Z,17.17
2018-10-09T10:34:39.782Z,17.09
2018-10-09T10:35:39.840Z,17.25
2018-10-09T10:36:39.820Z,17.32
2018-10-09T10:37:39.747Z,17.39
2018-10-09T10:38:39.743Z,17.39
2018-10-09T10:39:39.789Z,17.38
2018-10-09T10:40:39.721Z,17.47
2018-10-09T10:41:39.725Z,17.60
2018-10-09T10:42:39.696Z,17.60
2018-10-09T10:43:39.687Z,17.68
2018-10-09T10:44:39.704Z,17.76
2018-10-09T10:45:39.662Z,17.79
2018-10-09T10:46:39.651Z,17.79
2018-10-09T10:47:39.658Z,17.80
2018-10-09T10:48:39.631Z,17.79
2018-10-09T10:49:39.643Z,17.91
2018-10-09T10:50:39.609Z,17.94
2018-10-09T10:51:39.604Z,18.01
2018-10-09T10:52:39.585Z,18.10
2018-10-09T10:53:39.575Z,18.23
2018-10-09T10:54:39.594Z,18.32
2018-10-09T10:55:39.555Z,18.34
2018-10-09T10:56:39.542Z,18.38
2018-10-09T10:57:39.536Z,18.38
2018-10-09T10:58:39.525Z,18.38
2018-10-09T10:59:39.511Z,18.38
2018-10-09T11:00:39.524Z,18.38
2018-10-09T11:01:39.521Z,18.29
2018-10-09T11:02:39.479Z,18.32
2018-10-09T11:03:39.465Z,18.38
2018-10-09T11:04:39.456Z,18.34
2018-10-09T11:05:39.484Z,18.46
2018-10-09T11:06:39.437Z,18.41
2018-10-09T11:07:39.422Z,18.53
2018-10-09T11:08:39.411Z,18.53
2018-10-09T11:09:39.402Z,18.60
2018-10-09T11:10:39.397Z,18.75
2018-10-09T11:11:39.402Z,18.69
2018-10-09T11:12:39.368Z,18.87
2018-10-09T11:13:39.356Z,18.93
2018-10-09T11:14:39.475Z,18.91
2018-10-09T11:15:39.335Z,19.05
2018-10-09T11:16:39.347Z,19.15
2018-10-09T11:17:39.314Z,19.27
2018-10-09T11:18:39.302Z,19.24
2018-10-09T11:19:39.297Z,19.32
2018-10-09T11:20:39.281Z,19.39
2018-10-09T11:21:39.312Z,19.43
2018-10-09T11:22:39.260Z,19.47
2018-10-09T11:23:39.253Z,19.60
2018-10-09T11:24:39.239Z,19.67
2018-10-09T11:25:39.230Z,19.70
2018-10-09T11:26:39.242Z,19.85
2018-10-09T11:27:39.215Z,19.90
2018-10-09T11:28:39.196Z,19.97
2018-10-09T11:29:39.189Z,20.13
2018-10-09T11:30:39.172Z,20.20
2018-10-09T11:31:39.185Z,20.35
2018-10-09T11:32:39.305Z,20.42
2018-10-09T11:33:39.141Z,20.57
2018-10-09T11:34:39.129Z,20.69
2018-10-09T11:35:39.142Z,20.78
2018-10-09T11:36:39.134Z,20.81
2018-10-09T11:37:39.100Z,20.93
2018-10-09T11:38:39.086Z,21.06
2018-10-09T11:39:39.082Z,21.01
2018-10-09T11:40:39.065Z,21.05
2018-10-09T11:41:39.078Z,21.13
2018-10-09T11:42:39.099Z,21.13
2018-10-09T11:43:39.038Z,21.15
2018-10-09T11:44:39.022Z,21.19
2018-10-09T11:45:39.011Z,21.22
2018-10-09T11:46:39.030Z,21.28
2018-10-09T11:47:38.993Z,21.22
2018-10-09T11:48:38.983Z,21.28
2018-10-09T11:49:38.974Z,21.26
2018-10-09T11:50:38.958Z,21.27
2018-10-09T11:51:38.947Z,21.24
2018-10-09T11:52:38.964Z,21.34
2018-10-09T11:53:38.931Z,21.33
2018-10-09T11:54:38.914Z,21.31
2018-10-09T11:55:38.907Z,21.43
2018-10-09T11:56:38.894Z,21.43
2018-10-09T11:57:38.908Z,21.45
2018-10-09T11:58:38.917Z,21.49
2018-10-09T11:59:38.863Z,21.40
2018-10-09T12:00:38.863Z,21.43
2018-10-09T12:01:38.852Z,21.36
2018-10-09T12:02:38.877Z,21.26
2018-10-09T12:03:38.826Z,21.34
2018-10-09T12:04:38.807Z,21.34
2018-10-09T12:05:38.821Z,21.37
2018-10-09T12:06:38.791Z,21.37
2018-10-09T12:07:38.777Z,21.49
2018-10-09T12:08:38.812Z,21.42
2018-10-09T12:09:38.756Z,21.58
2018-10-09T12:10:38.751Z,21.52
2018-10-09T12:11:38.745Z,21.58
2018-10-09T12:12:38.722Z,21.66
2018-10-09T12:13:38.752Z,21.77
2018-10-09T12:14:38.706Z,21.86
2018-10-09T12:15:38.738Z,21.86
2018-10-09T12:16:38.681Z,21.86
2018-10-09T12:17:38.669Z,21.93
2018-10-09T12:18:38.690Z,22.05
2018-10-09T12:19:38.657Z,22.11
2018-10-09T12:20:38.654Z,22.11
2018-10-09T12:21:38.762Z,22.21
2018-10-09T12:22:38.617Z,22.21
2018-10-09T12:23:38.627Z,22.46
2018-10-09T12:24:38.605Z,22.69
2018-10-09T12:25:38.587Z,22.89
2018-10-09T12:26:38.583Z,22.93
2018-10-09T12:27:38.565Z,23.14
2018-10-09T12:28:38.577Z,23.22
2018-10-09T12:29:38.540Z,23.50
2018-10-09T12:30:38.580Z,23.87
2018-10-09T12:31:38.524Z,23.81
2018-10-09T12:32:38.510Z,23.72
2018-10-09T12:33:38.525Z,23.75
2018-10-09T12:34:38.487Z,23.64
2018-10-09T12:35:38.476Z,23.56
2018-10-09T12:36:38.469Z,23.50
2018-10-09T12:37:38.457Z,23.53
2018-10-09T12:38:38.494Z,23.56
2018-10-09T12:39:38.437Z,23.45
2018-10-09T12:40:38.465Z,23.41
2018-10-09T12:41:38.439Z,23.35
2018-10-09T12:42:38.409Z,23.18
2018-10-09T12:43:38.418Z,22.86
2018-10-09T12:44:38.381Z,22.75
2018-10-09T12:45:38.383Z,22.69
2018-10-09T12:46:38.364Z,22.59
2018-10-09T12:47:38.382Z,22.46
2018-10-09T12:48:38.340Z,22.41
2018-10-09T12:49:38.342Z,22.49
2018-10-09T12:50:38.318Z,22.59
2018-10-09T12:51:38.308Z,22.69
2018-10-09T12:52:38.299Z,22.78
2018-10-09T12:53:38.311Z,22.99
2018-10-09T12:54:38.283Z,23.07
2018-10-09T12:55:38.270Z,23.19
2018-10-09T12:56:38.261Z,23.26
2018-10-09T12:57:38.246Z,23.38
2018-10-09T12:58:38.356Z,23.35
2018-10-09T12:59:38.223Z,23.25
2018-10-09T13:00:38.216Z,23.16
2018-10-09T13:01:38.223Z,22.84
2018-10-09T13:02:38.192Z,22.76
2018-10-09T13:03:38.201Z,22.57
2018-10-09T13:04:38.171Z,22.42
2018-10-09T13:05:38.166Z,22.39
2018-10-09T13:06:38.146Z,22.20
2018-10-09T13:07:38.194Z,21.99